sensor_id;sensor_type;location;lat;lon;timestamp;P1;durP1;ratioP1;P2;durP2;ratioP2
25615;SDS011;13482;48.234;13.006;2023-06-14T00:02:28;2.80;;;1.60;;
25615;SDS011;13482;48.234;13.006;2023-06-14T00:04:57;2.38;;;1.33;;
25615;SDS011;13482;48.234;13.006;2023-06-14T00:07:38;2.80;;;1.38;;
25615;SDS011;13482;48.234;13.006;2023-06-14T00:10:11;2.97;;;1.40;;
25615;SDS011;13482;48.234;13.006;2023-06-14T00:12:52;2.55;;;1.60;;
25615;SDS011;13482;48.234;13.006;2023-06-14T00:15:21;1.98;;;1.38;;
25615;SDS011;13482;48.234;13.006;2023-06-14T00:17:51;2.30;;;1.35;;
25615;SDS011;13482;48.234;13.006;2023-06-14T00:20:18;2.30;;;1.42;;
25615;SDS011;13482;48.234;13.006;2023-06-14T00:22:46;2.03;;;1.30;;
25615;SDS011;13482;48.234;13.006;2023-06-14T00:25:15;2.03;;;1.48;;
25615;SDS011;13482;48.234;13.006;2023-06-14T00:27:54;2.20;;;1.40;;
25615;SDS011;13482;48.234;13.006;2023-06-14T00:30:25;1.88;;;1.27;;
25615;SDS011;13482;48.234;13.006;2023-06-14T00:32:58;2.75;;;1.40;;
25615;SDS011;13482;48.234;13.006;2023-06-14T00:35:26;2.17;;;1.35;;
25615;SDS011;13482;48.234;13.006;2023-06-14T00:37:55;2.72;;;1.52;;
25615;SDS011;13482;48.234;13.006;2023-06-14T00:40:26;1.98;;;1.35;;
25615;SDS011;13482;48.234;13.006;2023-06-14T00:42:54;1.95;;;1.38;;
25615;SDS011;13482;48.234;13.006;2023-06-14T00:45:23;2.20;;;1.40;;
25615;SDS011;13482;48.234;13.006;2023-06-14T00:47:53;2.25;;;1.42;;
25615;SDS011;13482;48.234;13.006;2023-06-14T00:50:22;1.98;;;1.25;;
25615;SDS011;13482;48.234;13.006;2023-06-14T00:52:53;2.42;;;1.48;;
25615;SDS011;13482;48.234;13.006;2023-06-14T00:55:21;3.22;;;1.38;;
25615;SDS011;13482;48.234;13.006;2023-06-14T00:57:50;2.65;;;1.23;;
25615;SDS011;13482;48.234;13.006;2023-06-14T01:00:18;2.80;;;1.77;;
25615;SDS011;13482;48.234;13.006;2023-06-14T01:02:46;2.08;;;1.40;;
25615;SDS011;13482;48.234;13.006;2023-06-14T01:05:17;1.90;;;1.23;;
25615;SDS011;13482;48.234;13.006;2023-06-14T01:08:05;2.45;;;1.30;;
25615;SDS011;13482;48.234;13.006;2023-06-14T01:13:38;2.10;;;1.35;;
25615;SDS011;13482;48.234;13.006;2023-06-14T01:16:13;2.00;;;1.20;;
25615;SDS011;13482;48.234;13.006;2023-06-14T01:18:42;2.03;;;1.08;;
25615;SDS011;13482;48.234;13.006;2023-06-14T01:21:25;2.17;;;1.40;;
25615;SDS011;13482;48.234;13.006;2023-06-14T01:23:55;2.08;;;1.48;;
25615;SDS011;13482;48.234;13.006;2023-06-14T01:26:23;2.20;;;1.30;;
25615;SDS011;13482;48.234;13.006;2023-06-14T01:28:53;2.97;;;1.52;;
25615;SDS011;13482;48.234;13.006;2023-06-14T01:31:30;2.75;;;1.45;;
25615;SDS011;13482;48.234;13.006;2023-06-14T01:34:08;2.47;;;1.27;;
25615;SDS011;13482;48.234;13.006;2023-06-14T01:36:37;2.20;;;1.40;;
25615;SDS011;13482;48.234;13.006;2023-06-14T01:39:10;2.50;;;1.60;;
25615;SDS011;13482;48.234;13.006;2023-06-14T01:41:45;2.15;;;1.30;;
25615;SDS011;13482;48.234;13.006;2023-06-14T01:44:17;2.00;;;1.30;;
25615;SDS011;13482;48.234;13.006;2023-06-14T01:46:48;2.85;;;1.60;;
25615;SDS011;13482;48.234;13.006;2023-06-14T01:49:16;1.70;;;1.10;;
25615;SDS011;13482;48.234;13.006;2023-06-14T01:51:45;2.10;;;1.40;;
25615;SDS011;13482;48.234;13.006;2023-06-14T01:54:14;2.90;;;1.42;;
25615;SDS011;13482;48.234;13.006;2023-06-14T01:56:43;3.40;;;1.33;;
25615;SDS011;13482;48.234;13.006;2023-06-14T01:59:11;2.90;;;1.55;;
25615;SDS011;13482;48.234;13.006;2023-06-14T02:01:39;3.00;;;1.65;;
25615;SDS011;13482;48.234;13.006;2023-06-14T02:04:07;1.88;;;1.30;;
25615;SDS011;13482;48.234;13.006;2023-06-14T02:06:35;3.50;;;1.52;;
25615;SDS011;13482;48.234;13.006;2023-06-14T02:09:03;2.40;;;1.33;;
25615;SDS011;13482;48.234;13.006;2023-06-14T02:11:31;2.55;;;1.23;;
25615;SDS011;13482;48.234;13.006;2023-06-14T02:14:00;1.75;;;1.30;;
25615;SDS011;13482;48.234;13.006;2023-06-14T02:16:29;2.58;;;1.58;;
25615;SDS011;13482;48.234;13.006;2023-06-14T02:19:03;3.63;;;1.67;;
25615;SDS011;13482;48.234;13.006;2023-06-14T02:21:32;2.72;;;1.80;;
25615;SDS011;13482;48.234;13.006;2023-06-14T02:24:00;7.05;;;2.15;;
25615;SDS011;13482;48.234;13.006;2023-06-14T02:26:30;2.80;;;1.50;;
25615;SDS011;13482;48.234;13.006;2023-06-14T02:29:00;2.58;;;1.60;;
25615;SDS011;13482;48.234;13.006;2023-06-14T02:31:31;2.58;;;1.48;;
25615;SDS011;13482;48.234;13.006;2023-06-14T02:34:00;2.80;;;1.40;;
25615;SDS011;13482;48.234;13.006;2023-06-14T02:36:30;3.70;;;1.42;;
25615;SDS011;13482;48.234;13.006;2023-06-14T02:38:58;2.78;;;1.63;;
25615;SDS011;13482;48.234;13.006;2023-06-14T02:41:27;3.00;;;1.73;;
25615;SDS011;13482;48.234;13.006;2023-06-14T02:43:55;3.15;;;1.75;;
25615;SDS011;13482;48.234;13.006;2023-06-14T02:46:25;3.00;;;1.73;;
25615;SDS011;13482;48.234;13.006;2023-06-14T02:48:52;2.63;;;1.60;;
25615;SDS011;13482;48.234;13.006;2023-06-14T02:51:20;2.67;;;1.48;;
25615;SDS011;13482;48.234;13.006;2023-06-14T02:53:48;3.42;;;1.70;;
25615;SDS011;13482;48.234;13.006;2023-06-14T02:56:15;2.83;;;1.70;;
25615;SDS011;13482;48.234;13.006;2023-06-14T02:58:46;3.25;;;1.75;;
25615;SDS011;13482;48.234;13.006;2023-06-14T03:01:15;4.35;;;1.77;;
25615;SDS011;13482;48.234;13.006;2023-06-14T03:03:44;3.15;;;2.00;;
25615;SDS011;13482;48.234;13.006;2023-06-14T03:06:12;2.85;;;2.03;;
25615;SDS011;13482;48.234;13.006;2023-06-14T03:08:40;2.40;;;1.42;;
25615;SDS011;13482;48.234;13.006;2023-06-14T03:11:08;3.15;;;1.52;;
25615;SDS011;13482;48.234;13.006;2023-06-14T03:13:36;5.72;;;3.10;;
25615;SDS011;13482;48.234;13.006;2023-06-14T03:16:05;4.50;;;2.53;;
25615;SDS011;13482;48.234;13.006;2023-06-14T03:18:33;3.20;;;1.90;;
25615;SDS011;13482;48.234;13.006;2023-06-14T03:21:02;2.90;;;1.80;;
25615;SDS011;13482;48.234;13.006;2023-06-14T03:23:30;2.47;;;1.70;;
25615;SDS011;13482;48.234;13.006;2023-06-14T03:25:58;3.45;;;1.52;;
25615;SDS011;13482;48.234;13.006;2023-06-14T03:28:25;2.13;;;1.58;;
25615;SDS011;13482;48.234;13.006;2023-06-14T03:30:53;3.92;;;1.70;;
25615;SDS011;13482;48.234;13.006;2023-06-14T03:33:21;3.38;;;1.67;;
25615;SDS011;13482;48.234;13.006;2023-06-14T03:35:48;3.38;;;1.95;;
25615;SDS011;13482;48.234;13.006;2023-06-14T03:38:17;2.33;;;1.55;;
25615;SDS011;13482;48.234;13.006;2023-06-14T03:40:44;2.00;;;1.40;;
25615;SDS011;13482;48.234;13.006;2023-06-14T03:43:13;2.47;;;1.58;;
25615;SDS011;13482;48.234;13.006;2023-06-14T03:45:40;2.20;;;1.25;;
25615;SDS011;13482;48.234;13.006;2023-06-14T03:48:08;2.80;;;1.30;;
25615;SDS011;13482;48.234;13.006;2023-06-14T03:50:36;3.75;;;1.50;;
25615;SDS011;13482;48.234;13.006;2023-06-14T03:53:09;2.35;;;1.58;;
25615;SDS011;13482;48.234;13.006;2023-06-14T03:55:37;2.40;;;1.50;;
25615;SDS011;13482;48.234;13.006;2023-06-14T03:58:26;2.30;;;1.42;;
25615;SDS011;13482;48.234;13.006;2023-06-14T04:00:54;2.70;;;1.60;;
25615;SDS011;13482;48.234;13.006;2023-06-14T04:03:22;2.78;;;1.50;;
25615;SDS011;13482;48.234;13.006;2023-06-14T04:05:51;2.53;;;1.67;;
25615;SDS011;13482;48.234;13.006;2023-06-14T04:08:23;2.65;;;1.80;;
25615;SDS011;13482;48.234;13.006;2023-06-14T04:10:51;3.00;;;1.73;;
25615;SDS011;13482;48.234;13.006;2023-06-14T04:13:18;2.88;;;1.67;;
25615;SDS011;13482;48.234;13.006;2023-06-14T04:15:46;2.72;;;1.65;;
25615;SDS011;13482;48.234;13.006;2023-06-14T04:18:14;3.53;;;1.70;;
25615;SDS011;13482;48.234;13.006;2023-06-14T04:20:41;3.10;;;1.75;;
25615;SDS011;13482;48.234;13.006;2023-06-14T04:23:16;2.63;;;1.60;;
25615;SDS011;13482;48.234;13.006;2023-06-14T04:25:48;2.20;;;1.45;;
25615;SDS011;13482;48.234;13.006;2023-06-14T04:28:16;2.50;;;1.70;;
25615;SDS011;13482;48.234;13.006;2023-06-14T04:30:45;2.95;;;1.63;;
25615;SDS011;13482;48.234;13.006;2023-06-14T04:33:14;2.65;;;1.80;;
25615;SDS011;13482;48.234;13.006;2023-06-14T04:35:41;2.28;;;1.50;;
25615;SDS011;13482;48.234;13.006;2023-06-14T04:38:09;2.53;;;1.75;;
25615;SDS011;13482;48.234;13.006;2023-06-14T04:40:40;2.00;;;1.52;;
25615;SDS011;13482;48.234;13.006;2023-06-14T04:43:09;2.25;;;1.63;;
25615;SDS011;13482;48.234;13.006;2023-06-14T04:45:47;2.15;;;1.55;;
25615;SDS011;13482;48.234;13.006;2023-06-14T04:48:14;2.78;;;1.92;;
25615;SDS011;13482;48.234;13.006;2023-06-14T04:50:46;2.60;;;1.50;;
25615;SDS011;13482;48.234;13.006;2023-06-14T04:53:13;2.42;;;1.80;;
25615;SDS011;13482;48.234;13.006;2023-06-14T04:55:41;3.03;;;1.73;;
25615;SDS011;13482;48.234;13.006;2023-06-14T04:58:11;2.22;;;1.70;;
25615;SDS011;13482;48.234;13.006;2023-06-14T05:00:39;2.53;;;1.90;;
25615;SDS011;13482;48.234;13.006;2023-06-14T05:03:09;3.63;;;2.10;;
25615;SDS011;13482;48.234;13.006;2023-06-14T05:05:40;3.53;;;1.90;;
25615;SDS011;13482;48.234;13.006;2023-06-14T05:08:08;2.95;;;2.17;;
25615;SDS011;13482;48.234;13.006;2023-06-14T05:10:36;3.05;;;2.03;;
25615;SDS011;13482;48.234;13.006;2023-06-14T05:13:03;4.43;;;1.90;;
25615;SDS011;13482;48.234;13.006;2023-06-14T05:15:31;2.97;;;2.30;;
25615;SDS011;13482;48.234;13.006;2023-06-14T05:17:59;3.63;;;2.28;;
25615;SDS011;13482;48.234;13.006;2023-06-14T05:20:28;2.97;;;2.03;;
25615;SDS011;13482;48.234;13.006;2023-06-14T05:22:55;3.13;;;2.15;;
25615;SDS011;13482;48.234;13.006;2023-06-14T05:25:23;2.92;;;2.15;;
25615;SDS011;13482;48.234;13.006;2023-06-14T05:27:51;3.20;;;2.30;;
25615;SDS011;13482;48.234;13.006;2023-06-14T05:30:18;3.35;;;2.05;;
25615;SDS011;13482;48.234;13.006;2023-06-14T05:32:46;3.22;;;2.35;;
25615;SDS011;13482;48.234;13.006;2023-06-14T05:35:14;3.20;;;2.30;;
25615;SDS011;13482;48.234;13.006;2023-06-14T05:37:43;4.15;;;2.10;;
25615;SDS011;13482;48.234;13.006;2023-06-14T05:40:11;2.88;;;2.35;;
25615;SDS011;13482;48.234;13.006;2023-06-14T05:42:39;3.50;;;2.28;;
25615;SDS011;13482;48.234;13.006;2023-06-14T05:45:13;2.75;;;2.15;;
25615;SDS011;13482;48.234;13.006;2023-06-14T05:47:43;3.45;;;2.00;;
25615;SDS011;13482;48.234;13.006;2023-06-14T05:50:12;3.30;;;2.40;;
25615;SDS011;13482;48.234;13.006;2023-06-14T05:52:40;2.53;;;1.98;;
25615;SDS011;13482;48.234;13.006;2023-06-14T05:55:08;4.28;;;2.25;;
25615;SDS011;13482;48.234;13.006;2023-06-14T05:57:41;2.40;;;1.83;;
25615;SDS011;13482;48.234;13.006;2023-06-14T06:00:09;3.08;;;2.00;;
25615;SDS011;13482;48.234;13.006;2023-06-14T06:02:41;2.75;;;1.70;;
25615;SDS011;13482;48.234;13.006;2023-06-14T06:05:11;3.25;;;1.90;;
25615;SDS011;13482;48.234;13.006;2023-06-14T06:07:40;3.08;;;1.70;;
25615;SDS011;13482;48.234;13.006;2023-06-14T06:10:08;3.25;;;1.52;;
25615;SDS011;13482;48.234;13.006;2023-06-14T06:12:36;4.22;;;1.75;;
25615;SDS011;13482;48.234;13.006;2023-06-14T06:15:04;2.00;;;1.48;;
25615;SDS011;13482;48.234;13.006;2023-06-14T06:17:33;2.35;;;1.65;;
25615;SDS011;13482;48.234;13.006;2023-06-14T06:20:20;2.58;;;1.63;;
25615;SDS011;13482;48.234;13.006;2023-06-14T06:22:55;2.50;;;1.70;;
25615;SDS011;13482;48.234;13.006;2023-06-14T06:25:25;2.75;;;1.50;;
25615;SDS011;13482;48.234;13.006;2023-06-14T06:27:54;3.17;;;1.70;;
25615;SDS011;13482;48.234;13.006;2023-06-14T06:30:24;2.45;;;1.70;;
25615;SDS011;13482;48.234;13.006;2023-06-14T06:32:53;4.40;;;1.60;;
25615;SDS011;13482;48.234;13.006;2023-06-14T06:35:24;2.78;;;1.80;;
25615;SDS011;13482;48.234;13.006;2023-06-14T06:37:52;3.55;;;1.90;;
25615;SDS011;13482;48.234;13.006;2023-06-14T06:40:20;1.90;;;1.30;;
25615;SDS011;13482;48.234;13.006;2023-06-14T06:42:47;3.78;;;1.48;;
25615;SDS011;13482;48.234;13.006;2023-06-14T06:45:16;2.38;;;1.65;;
25615;SDS011;13482;48.234;13.006;2023-06-14T06:47:44;1.95;;;1.42;;
25615;SDS011;13482;48.234;13.006;2023-06-14T06:50:11;2.08;;;1.35;;
25615;SDS011;13482;48.234;13.006;2023-06-14T06:52:39;1.92;;;1.45;;
25615;SDS011;13482;48.234;13.006;2023-06-14T06:55:06;3.35;;;1.38;;
25615;SDS011;13482;48.234;13.006;2023-06-14T06:57:38;1.88;;;1.23;;
25615;SDS011;13482;48.234;13.006;2023-06-14T07:00:09;2.90;;;1.65;;
25615;SDS011;13482;48.234;13.006;2023-06-14T07:02:37;2.00;;;1.50;;
25615;SDS011;13482;48.234;13.006;2023-06-14T07:05:05;2.58;;;1.55;;
25615;SDS011;13482;48.234;13.006;2023-06-14T07:07:34;1.90;;;1.40;;
25615;SDS011;13482;48.234;13.006;2023-06-14T07:10:02;3.28;;;1.90;;
25615;SDS011;13482;48.234;13.006;2023-06-14T07:12:31;3.75;;;1.50;;
25615;SDS011;13482;48.234;13.006;2023-06-14T07:15:01;2.70;;;1.55;;
25615;SDS011;13482;48.234;13.006;2023-06-14T07:17:29;2.47;;;1.58;;
25615;SDS011;13482;48.234;13.006;2023-06-14T07:19:56;3.17;;;1.60;;
25615;SDS011;13482;48.234;13.006;2023-06-14T07:22:26;1.92;;;1.42;;
25615;SDS011;13482;48.234;13.006;2023-06-14T07:24:53;1.85;;;1.38;;
25615;SDS011;13482;48.234;13.006;2023-06-14T07:27:21;2.63;;;1.58;;
25615;SDS011;13482;48.234;13.006;2023-06-14T07:29:49;2.15;;;1.30;;
25615;SDS011;13482;48.234;13.006;2023-06-14T07:32:16;1.83;;;1.40;;
25615;SDS011;13482;48.234;13.006;2023-06-14T07:34:44;1.95;;;1.42;;
25615;SDS011;13482;48.234;13.006;2023-06-14T07:37:12;2.38;;;1.50;;
25615;SDS011;13482;48.234;13.006;2023-06-14T07:39:39;2.70;;;1.60;;
25615;SDS011;13482;48.234;13.006;2023-06-14T07:42:06;2.90;;;1.63;;
25615;SDS011;13482;48.234;13.006;2023-06-14T07:44:34;1.88;;;1.48;;
25615;SDS011;13482;48.234;13.006;2023-06-14T07:47:02;2.95;;;1.73;;
25615;SDS011;13482;48.234;13.006;2023-06-14T07:49:30;2.28;;;1.50;;
25615;SDS011;13482;48.234;13.006;2023-06-14T07:51:58;2.10;;;1.30;;
25615;SDS011;13482;48.234;13.006;2023-06-14T07:54:25;2.80;;;1.48;;
25615;SDS011;13482;48.234;13.006;2023-06-14T07:56:54;1.92;;;1.42;;
25615;SDS011;13482;48.234;13.006;2023-06-14T07:59:22;1.67;;;1.33;;
25615;SDS011;13482;48.234;13.006;2023-06-14T08:01:50;3.03;;;1.30;;
25615;SDS011;13482;48.234;13.006;2023-06-14T08:04:17;2.20;;;1.60;;
25615;SDS011;13482;48.234;13.006;2023-06-14T08:06:45;2.05;;;1.60;;
25615;SDS011;13482;48.234;13.006;2023-06-14T08:09:16;2.28;;;1.40;;
25615;SDS011;13482;48.234;13.006;2023-06-14T08:11:46;2.00;;;1.35;;
25615;SDS011;13482;48.234;13.006;2023-06-14T08:14:13;3.05;;;1.60;;
25615;SDS011;13482;48.234;13.006;2023-06-14T08:16:41;2.55;;;1.60;;
25615;SDS011;13482;48.234;13.006;2023-06-14T08:19:10;2.67;;;1.70;;
25615;SDS011;13482;48.234;13.006;2023-06-14T08:21:38;2.00;;;1.40;;
25615;SDS011;13482;48.234;13.006;2023-06-14T08:24:06;3.38;;;1.63;;
25615;SDS011;13482;48.234;13.006;2023-06-14T08:26:35;3.55;;;1.38;;
25615;SDS011;13482;48.234;13.006;2023-06-14T08:29:03;2.08;;;1.45;;
25615;SDS011;13482;48.234;13.006;2023-06-14T08:31:30;2.40;;;1.50;;
25615;SDS011;13482;48.234;13.006;2023-06-14T08:33:59;3.78;;;1.48;;
25615;SDS011;13482;48.234;13.006;2023-06-14T08:36:27;2.13;;;1.55;;
25615;SDS011;13482;48.234;13.006;2023-06-14T08:38:55;1.75;;;1.27;;
25615;SDS011;13482;48.234;13.006;2023-06-14T08:41:23;2.53;;;1.55;;
25615;SDS011;13482;48.234;13.006;2023-06-14T08:43:52;4.47;;;1.50;;
25615;SDS011;13482;48.234;13.006;2023-06-14T08:46:19;2.72;;;1.77;;
25615;SDS011;13482;48.234;13.006;2023-06-14T08:48:51;2.45;;;1.40;;
25615;SDS011;13482;48.234;13.006;2023-06-14T08:51:19;2.38;;;1.58;;
25615;SDS011;13482;48.234;13.006;2023-06-14T08:53:52;2.53;;;1.33;;
25615;SDS011;13482;48.234;13.006;2023-06-14T08:56:27;2.33;;;1.50;;
25615;SDS011;13482;48.234;13.006;2023-06-14T08:58:57;4.95;;;1.75;;
25615;SDS011;13482;48.234;13.006;2023-06-14T09:01:34;2.17;;;1.50;;
25615;SDS011;13482;48.234;13.006;2023-06-14T09:04:04;2.15;;;1.50;;
25615;SDS011;13482;48.234;13.006;2023-06-14T09:06:34;2.85;;;1.73;;
25615;SDS011;13482;48.234;13.006;2023-06-14T09:09:03;3.28;;;1.60;;
25615;SDS011;13482;48.234;13.006;2023-06-14T09:11:37;2.10;;;1.50;;
25615;SDS011;13482;48.234;13.006;2023-06-14T09:14:09;2.28;;;1.60;;
25615;SDS011;13482;48.234;13.006;2023-06-14T09:16:37;3.28;;;1.30;;
25615;SDS011;13482;48.234;13.006;2023-06-14T09:19:04;2.35;;;1.50;;
25615;SDS011;13482;48.234;13.006;2023-06-14T09:21:35;4.22;;;1.63;;
25615;SDS011;13482;48.234;13.006;2023-06-14T09:24:05;2.10;;;1.27;;
25615;SDS011;13482;48.234;13.006;2023-06-14T09:26:33;1.98;;;1.50;;
25615;SDS011;13482;48.234;13.006;2023-06-14T09:29:07;2.00;;;1.50;;
25615;SDS011;13482;48.234;13.006;2023-06-14T09:31:36;1.90;;;1.55;;
25615;SDS011;13482;48.234;13.006;2023-06-14T09:34:07;1.80;;;1.33;;
25615;SDS011;13482;48.234;13.006;2023-06-14T09:36:42;2.10;;;1.30;;
25615;SDS011;13482;48.234;13.006;2023-06-14T09:39:10;2.03;;;1.45;;
25615;SDS011;13482;48.234;13.006;2023-06-14T09:41:45;1.85;;;1.35;;
25615;SDS011;13482;48.234;13.006;2023-06-14T09:44:13;2.10;;;1.55;;
25615;SDS011;13482;48.234;13.006;2023-06-14T09:46:46;2.83;;;1.40;;
25615;SDS011;13482;48.234;13.006;2023-06-14T09:49:18;2.78;;;1.65;;
25615;SDS011;13482;48.234;13.006;2023-06-14T09:51:50;2.10;;;1.40;;
25615;SDS011;13482;48.234;13.006;2023-06-14T09:54:21;2.30;;;1.60;;
25615;SDS011;13482;48.234;13.006;2023-06-14T09:56:49;2.53;;;1.48;;
25615;SDS011;13482;48.234;13.006;2023-06-14T09:59:22;2.13;;;1.30;;
25615;SDS011;13482;48.234;13.006;2023-06-14T10:01:57;2.95;;;1.40;;
25615;SDS011;13482;48.234;13.006;2023-06-14T10:04:27;1.65;;;1.27;;
25615;SDS011;13482;48.234;13.006;2023-06-14T10:07:00;2.10;;;1.50;;
25615;SDS011;13482;48.234;13.006;2023-06-14T10:09:33;2.92;;;1.48;;
25615;SDS011;13482;48.234;13.006;2023-06-14T10:12:04;2.00;;;1.50;;
25615;SDS011;13482;48.234;13.006;2023-06-14T10:14:32;1.77;;;1.38;;
25615;SDS011;13482;48.234;13.006;2023-06-14T10:17:10;2.35;;;1.38;;
25615;SDS011;13482;48.234;13.006;2023-06-14T10:20:30;1.85;;;1.30;;
25615;SDS011;13482;48.234;13.006;2023-06-14T10:23:21;1.80;;;1.27;;
25615;SDS011;13482;48.234;13.006;2023-06-14T10:25:58;2.35;;;1.60;;
25615;SDS011;13482;48.234;13.006;2023-06-14T10:28:27;2.30;;;1.47;;
25615;SDS011;13482;48.234;13.006;2023-06-14T10:31:04;1.83;;;1.30;;
25615;SDS011;13482;48.234;13.006;2023-06-14T10:33:33;1.50;;;1.10;;
25615;SDS011;13482;48.234;13.006;2023-06-14T10:41:37;2.85;;;1.27;;
25615;SDS011;13482;48.234;13.006;2023-06-14T10:46:52;1.60;;;1.00;;
25615;SDS011;13482;48.234;13.006;2023-06-14T10:49:36;2.60;;;1.30;;
25615;SDS011;13482;48.234;13.006;2023-06-14T10:52:15;1.80;;;1.15;;
25615;SDS011;13482;48.234;13.006;2023-06-14T10:57:55;1.40;;;1.10;;
25615;SDS011;13482;48.234;13.006;2023-06-14T11:00:25;1.85;;;1.10;;
25615;SDS011;13482;48.234;13.006;2023-06-14T11:06:09;2.13;;;1.10;;
25615;SDS011;13482;48.234;13.006;2023-06-14T11:11:39;1.83;;;1.15;;
25615;SDS011;13482;48.234;13.006;2023-06-14T11:17:30;1.88;;;1.05;;
25615;SDS011;13482;48.234;13.006;2023-06-14T11:20:10;1.70;;;1.30;;
25615;SDS011;13482;48.234;13.006;2023-06-14T11:22:50;2.67;;;1.20;;
25615;SDS011;13482;48.234;13.006;2023-06-14T11:25:20;1.73;;;1.17;;
25615;SDS011;13482;48.234;13.006;2023-06-14T11:27:50;2.05;;;1.40;;
25615;SDS011;13482;48.234;13.006;2023-06-14T11:30:20;2.88;;;1.58;;
25615;SDS011;13482;48.234;13.006;2023-06-14T11:32:50;2.40;;;1.30;;
25615;SDS011;13482;48.234;13.006;2023-06-14T11:35:24;2.75;;;1.40;;
25615;SDS011;13482;48.234;13.006;2023-06-14T11:37:57;1.88;;;1.30;;
25615;SDS011;13482;48.234;13.006;2023-06-14T11:42:58;2.17;;;1.27;;
25615;SDS011;13482;48.234;13.006;2023-06-14T11:45:29;2.30;;;1.17;;
25615;SDS011;13482;48.234;13.006;2023-06-14T11:47:59;3.67;;;1.40;;
25615;SDS011;13482;48.234;13.006;2023-06-14T11:50:27;1.52;;;1.20;;
25615;SDS011;13482;48.234;13.006;2023-06-14T11:52:56;2.05;;;1.30;;
25615;SDS011;13482;48.234;13.006;2023-06-14T11:55:38;1.25;;;1.08;;
25615;SDS011;13482;48.234;13.006;2023-06-14T11:58:08;2.30;;;1.48;;
25615;SDS011;13482;48.234;13.006;2023-06-14T12:00:38;2.03;;;1.38;;
25615;SDS011;13482;48.234;13.006;2023-06-14T12:03:06;1.50;;;1.10;;
25615;SDS011;13482;48.234;13.006;2023-06-14T12:05:34;1.70;;;1.10;;
25615;SDS011;13482;48.234;13.006;2023-06-14T12:08:04;1.52;;;1.10;;
25615;SDS011;13482;48.234;13.006;2023-06-14T12:10:40;1.90;;;1.38;;
25615;SDS011;13482;48.234;13.006;2023-06-14T12:13:10;2.97;;;1.40;;
25615;SDS011;13482;48.234;13.006;2023-06-14T12:15:38;2.55;;;1.23;;
25615;SDS011;13482;48.234;13.006;2023-06-14T12:18:05;1.85;;;1.20;;
25615;SDS011;13482;48.234;13.006;2023-06-14T12:20:35;2.45;;;1.48;;
25615;SDS011;13482;48.234;13.006;2023-06-14T12:23:03;1.85;;;1.30;;
25615;SDS011;13482;48.234;13.006;2023-06-14T12:25:35;1.98;;;1.35;;
25615;SDS011;13482;48.234;13.006;2023-06-14T12:28:07;2.30;;;1.23;;
25615;SDS011;13482;48.234;13.006;2023-06-14T12:30:37;1.40;;;1.10;;
25615;SDS011;13482;48.234;13.006;2023-06-14T12:33:08;2.35;;;1.35;;
25615;SDS011;13482;48.234;13.006;2023-06-14T12:35:39;1.90;;;1.20;;
25615;SDS011;13482;48.234;13.006;2023-06-14T12:38:07;1.75;;;1.13;;
25615;SDS011;13482;48.234;13.006;2023-06-14T12:40:34;1.75;;;1.38;;
25615;SDS011;13482;48.234;13.006;2023-06-14T12:43:04;2.50;;;1.27;;
25615;SDS011;13482;48.234;13.006;2023-06-14T12:45:32;1.60;;;1.30;;
25615;SDS011;13482;48.234;13.006;2023-06-14T12:48:00;2.03;;;1.42;;
25615;SDS011;13482;48.234;13.006;2023-06-14T12:50:30;1.90;;;1.40;;
25615;SDS011;13482;48.234;13.006;2023-06-14T12:52:58;1.95;;;1.50;;
25615;SDS011;13482;48.234;13.006;2023-06-14T12:55:26;1.67;;;1.10;;
25615;SDS011;13482;48.234;13.006;2023-06-14T12:57:53;1.85;;;1.25;;
25615;SDS011;13482;48.234;13.006;2023-06-14T13:00:21;3.58;;;1.35;;
25615;SDS011;13482;48.234;13.006;2023-06-14T13:02:54;1.52;;;1.20;;
25615;SDS011;13482;48.234;13.006;2023-06-14T13:05:25;2.65;;;1.40;;
25615;SDS011;13482;48.234;13.006;2023-06-14T13:07:53;2.33;;;1.23;;
25615;SDS011;13482;48.234;13.006;2023-06-14T13:10:21;1.98;;;1.50;;
25615;SDS011;13482;48.234;13.006;2023-06-14T13:12:49;2.13;;;1.40;;
25615;SDS011;13482;48.234;13.006;2023-06-14T13:15:20;1.58;;;1.17;;
25615;SDS011;13482;48.234;13.006;2023-06-14T13:17:49;3.40;;;1.40;;
25615;SDS011;13482;48.234;13.006;2023-06-14T13:20:17;2.92;;;1.35;;
25615;SDS011;13482;48.234;13.006;2023-06-14T13:22:48;2.03;;;1.10;;
25615;SDS011;13482;48.234;13.006;2023-06-14T13:25:21;1.65;;;1.10;;
25615;SDS011;13482;48.234;13.006;2023-06-14T13:27:49;2.55;;;1.30;;
25615;SDS011;13482;48.234;13.006;2023-06-14T13:30:17;1.63;;;1.30;;
25615;SDS011;13482;48.234;13.006;2023-06-14T13:32:47;2.00;;;1.38;;
25615;SDS011;13482;48.234;13.006;2023-06-14T13:35:18;2.40;;;1.30;;
25615;SDS011;13482;48.234;13.006;2023-06-14T13:37:47;1.73;;;1.40;;
25615;SDS011;13482;48.234;13.006;2023-06-14T13:40:17;1.83;;;1.40;;
25615;SDS011;13482;48.234;13.006;2023-06-14T13:42:46;2.20;;;1.20;;
25615;SDS011;13482;48.234;13.006;2023-06-14T13:45:14;2.60;;;1.27;;
25615;SDS011;13482;48.234;13.006;2023-06-14T13:47:42;1.65;;;1.27;;
25615;SDS011;13482;48.234;13.006;2023-06-14T13:50:10;2.17;;;1.30;;
25615;SDS011;13482;48.234;13.006;2023-06-14T13:52:40;22.60;;;1.70;;
25615;SDS011;13482;48.234;13.006;2023-06-14T13:55:17;1.80;;;1.20;;
25615;SDS011;13482;48.234;13.006;2023-06-14T13:57:47;2.13;;;1.25;;
25615;SDS011;13482;48.234;13.006;2023-06-14T14:00:18;1.80;;;1.30;;
25615;SDS011;13482;48.234;13.006;2023-06-14T14:02:50;3.00;;;1.60;;
25615;SDS011;13482;48.234;13.006;2023-06-14T14:05:19;1.73;;;1.33;;
25615;SDS011;13482;48.234;13.006;2023-06-14T14:07:53;4.18;;;1.20;;
25615;SDS011;13482;48.234;13.006;2023-06-14T14:10:21;1.95;;;1.30;;
25615;SDS011;13482;48.234;13.006;2023-06-14T14:12:51;2.67;;;1.20;;
25615;SDS011;13482;48.234;13.006;2023-06-14T14:15:20;2.15;;;1.30;;
25615;SDS011;13482;48.234;13.006;2023-06-14T14:17:47;1.60;;;1.15;;
25615;SDS011;13482;48.234;13.006;2023-06-14T14:20:15;1.90;;;1.33;;
25615;SDS011;13482;48.234;13.006;2023-06-14T14:22:44;1.35;;;1.13;;
25615;SDS011;13482;48.234;13.006;2023-06-14T14:25:13;1.83;;;1.30;;
25615;SDS011;13482;48.234;13.006;2023-06-14T14:27:43;2.00;;;1.30;;
25615;SDS011;13482;48.234;13.006;2023-06-14T14:30:18;2.88;;;1.10;;
25615;SDS011;13482;48.234;13.006;2023-06-14T14:32:51;1.75;;;1.30;;
25615;SDS011;13482;48.234;13.006;2023-06-14T14:35:24;1.65;;;1.05;;
25615;SDS011;13482;48.234;13.006;2023-06-14T14:37:57;1.70;;;1.30;;
25615;SDS011;13482;48.234;13.006;2023-06-14T14:40:25;1.52;;;1.20;;
25615;SDS011;13482;48.234;13.006;2023-06-14T14:42:54;2.08;;;1.23;;
25615;SDS011;13482;48.234;13.006;2023-06-14T14:45:28;2.55;;;1.35;;
25615;SDS011;13482;48.234;13.006;2023-06-14T14:48:00;1.85;;;1.30;;
25615;SDS011;13482;48.234;13.006;2023-06-14T14:50:29;2.13;;;1.50;;
25615;SDS011;13482;48.234;13.006;2023-06-14T14:52:57;1.88;;;1.25;;
25615;SDS011;13482;48.234;13.006;2023-06-14T14:55:48;1.63;;;1.30;;
25615;SDS011;13482;48.234;13.006;2023-06-14T14:58:22;2.85;;;1.33;;
25615;SDS011;13482;48.234;13.006;2023-06-14T15:01:07;1.55;;;1.23;;
25615;SDS011;13482;48.234;13.006;2023-06-14T15:03:39;2.05;;;1.40;;
25615;SDS011;13482;48.234;13.006;2023-06-14T15:06:26;1.70;;;1.15;;
25615;SDS011;13482;48.234;13.006;2023-06-14T15:08:59;1.55;;;1.05;;
25615;SDS011;13482;48.234;13.006;2023-06-14T15:11:27;1.77;;;1.23;;
25615;SDS011;13482;48.234;13.006;2023-06-14T15:13:56;1.67;;;1.05;;
25615;SDS011;13482;48.234;13.006;2023-06-14T15:16:28;2.13;;;1.30;;
25615;SDS011;13482;48.234;13.006;2023-06-14T15:18:57;3.20;;;1.38;;